Henderson, Michigan
Current Conditions -  °F | °C
As of 10:34 PM on Monday 20 Oct 2014 (Local Time) from KRNP Reporting Station
Overcast Overcast  
Wind Chill: 47°   Ceiling: 2100
Heat Index: 49°   Visibility: 10mi
Dew Point: 44°   Wind: 6mph
Humidity: 82%   Direction: 320°NW
Pressure: 29.9"   Gusts: NA
Location:  43.09°N, 84.2°W
Report Text: KRNP 210234Z AUTO 32005KT 10SM BKN021 OVC070 10/07 A2990 RMK AO2 T00950066
Loading
Personal Weather Stations






























Interactive Weather Map
Tropical Storm Tracking
New forecast layout! Learn more

10-Day Weather Forecast

Advertisements
Track Severe Weather on mobile